Time;durP1;ratioP1;P1;durP2;ratioP2;P2;SDS_P1;SDS_P2;PMS_P1;PMS_P2;Temp;Humidity;BMP_temperature;BMP_pressure;BME280_temperature;BME280_humidity;BME280_pressure;Samples;Min_cycle;Max_cycle;Signal;HPM_P1;HPM_P2
2022/03/08 00:00:57;;;;;;;12.17;9.70;;;;;;;4.32;89.76;99381.84;5050526;28;20195;-60
2022/03/08 00:03:25;;;;;;;15.90;12.87;;;;;;;4.29;89.94;99386.81;5050709;28;20204;-60
2022/03/08 00:05:51;;;;;;;14.70;11.00;;;;;;;4.27;89.92;99383.34;5045779;28;20674;-61
2022/03/08 00:08:19;;;;;;;14.27;10.93;;;;;;;4.32;90.35;99386.06;5030924;28;20217;-60
2022/03/08 00:10:45;;;;;;;12.83;10.50;;;;;;;4.37;91.39;99385.44;5030757;28;20280;-60
2022/03/08 00:13:12;;;;;;;11.77;9.50;;;;;;;4.39;91.11;99388.94;5044318;28;20201;-60
2022/03/08 00:15:39;;;;;;;11.37;9.43;;;;;;;4.42;90.94;99378.84;5050607;28;20192;-60
2022/03/08 00:18:08;;;;;;;12.10;9.83;;;;;;;4.43;90.62;99379.72;5050330;28;20218;-60
2022/03/08 00:20:35;;;;;;;10.47;9.23;;;;;;;4.41;90.57;99382.22;5050173;28;20193;-61
2022/03/08 00:23:03;;;;;;;12.73;11.43;;;;;;;4.42;90.49;99388.19;5049221;28;20957;-61
2022/03/08 00:25:30;;;;;;;11.43;9.87;;;;;;;4.34;89.75;99381.94;5049756;28;20222;-60
2022/03/08 00:27:57;;;;;;;10.40;8.77;;;;;;;4.25;89.66;99377.34;5050297;28;20192;-59
2022/03/08 00:30:26;;;;;;;10.37;9.27;;;;;;;4.21;89.88;99374.59;5050063;28;20239;-60
2022/03/08 00:32:54;;;;;;;10.57;9.47;;;;;;;4.11;90.42;99376.81;5050178;28;20190;-60
2022/03/08 00:35:24;;;;;;;9.60;8.63;;;;;;;4.09;90.16;99378.41;5050313;28;20246;-60
2022/03/08 00:37:52;;;;;;;11.53;9.60;;;;;;;4.03;90.75;99375.63;5049931;28;20212;-61
2022/03/08 00:40:21;;;;;;;11.03;9.37;;;;;;;3.97;90.98;99370.31;5050079;28;20206;-60
2022/03/08 00:42:48;;;;;;;13.70;10.73;;;;;;;4.06;91.83;99372.34;5049966;28;20438;-60
2022/03/08 00:45:15;;;;;;;12.97;10.40;;;;;;;4.13;92.28;99371.78;5049835;28;20197;-60
2022/03/08 00:47:42;;;;;;;12.70;10.60;;;;;;;4.10;91.29;99369.97;5049876;28;20287;-60
2022/03/08 00:50:12;;;;;;;19.60;15.10;;;;;;;4.04;90.66;99367.19;5050125;28;20192;-60
2022/03/08 00:52:41;;;;;;;15.98;14.32;;;;;;;4.13;90.59;99367.56;5048735;28;20435;-60
2022/03/08 00:55:10;;;;;;;11.63;9.47;;;;;;;4.18;90.81;99360.09;5049939;28;20291;-60
2022/03/08 00:57:37;;;;;;;9.97;8.83;;;;;;;4.05;90.94;99332.47;5049806;28;20213;-60
2022/03/08 01:00:07;;;;;;;11.40;8.40;;;;;;;4.03;90.79;99340.06;5049707;28;20193;-60
2022/03/08 01:02:34;;;;;;;10.90;8.73;;;;;;;4.06;91.58;99330.00;5050077;28;20223;-60
2022/03/08 01:05:01;;;;;;;10.97;9.53;;;;;;;3.93;92.16;99329.44;5050082;28;20192;-60
2022/03/08 01:07:28;;;;;;;14.43;10.77;;;;;;;3.91;92.67;99339.56;5049986;28;20226;-60
2022/03/08 01:09:56;;;;;;;12.87;11.03;;;;;;;3.90;92.55;99347.97;5049932;28;20201;-60
2022/03/08 01:12:24;;;;;;;14.10;11.93;;;;;;;3.90;92.31;99349.69;5049889;28;20601;-60
2022/03/08 01:14:51;;;;;;;12.13;10.83;;;;;;;3.87;92.11;99342.81;5049629;28;20670;-60
2022/03/08 01:17:18;;;;;;;13.00;10.97;;;;;;;3.85;92.38;99341.84;5048131;28;20222;-60
2022/03/08 01:19:45;;;;;;;10.57;9.47;;;;;;;3.91;92.80;99347.19;5045418;28;20543;-60
2022/03/08 01:22:12;;;;;;;12.17;9.60;;;;;;;3.91;92.72;99352.25;5049140;28;20205;-60
2022/03/08 01:24:39;;;;;;;12.63;10.73;;;;;;;3.97;92.47;99355.06;5049276;28;20188;-59
2022/03/08 01:27:07;;;;;;;12.73;11.33;;;;;;;3.91;93.24;99352.25;5049201;28;20200;-60
2022/03/08 01:29:34;;;;;;;14.97;11.93;;;;;;;4.00;92.46;99352.63;5049192;28;20606;-59
2022/03/08 01:32:01;;;;;;;12.00;10.50;;;;;;;4.05;92.96;99363.84;5049098;28;20193;-60
2022/03/08 01:34:28;;;;;;;14.07;10.70;;;;;;;4.10;93.34;99358.94;5049224;28;20211;-60
2022/03/08 01:36:55;;;;;;;11.00;9.53;;;;;;;4.09;92.53;99360.59;5050780;28;20648;-60
2022/03/08 01:39:23;;;;;;;15.20;11.83;;;;;;;4.15;92.40;99353.22;5052802;28;20212;-60
2022/03/08 01:41:49;;;;;;;14.27;11.33;;;;;;;4.16;92.42;99352.44;5052640;28;20230;-60
2022/03/08 01:44:19;;;;;;;14.60;10.90;;;;;;;4.05;92.62;99328.25;5052741;28;20669;-60
2022/03/08 01:46:46;;;;;;;13.27;11.30;;;;;;;4.01;93.08;99356.91;5050365;28;20186;-60
2022/03/08 01:49:13;;;;;;;14.47;11.83;;;;;;;4.09;92.56;99367.38;5052871;28;20222;-60
2022/03/08 01:51:42;;;;;;;16.70;12.70;;;;;;;4.14;92.87;99366.75;5053070;28;20181;-60
2022/03/08 01:54:10;;;;;;;13.10;11.00;;;;;;;4.25;92.82;99356.13;5052495;28;20275;-60
2022/03/08 01:56:38;;;;;;;18.43;12.80;;;;;;;4.30;92.51;99364.81;5052449;28;20700;-60
2022/03/08 01:59:06;;;;;;;15.33;12.07;;;;;;;4.35;92.86;99369.25;5047943;28;20220;-60
2022/03/08 02:01:34;;;;;;;14.27;11.60;;;;;;;4.35;92.40;99355.66;5052095;28;20193;-61
2022/03/08 02:04:01;;;;;;;15.80;11.27;;;;;;;4.43;91.58;99362.78;5052064;28;20193;-60
2022/03/08 02:06:28;;;;;;;14.17;11.37;;;;;;;4.35;91.43;99360.75;5052269;28;20196;-60
2022/03/08 02:08:55;;;;;;;14.57;12.17;;;;;;;4.30;90.60;99365.69;5052120;28;20236;-60
2022/03/08 02:11:22;;;;;;;17.20;15.10;;;;;;;4.41;91.53;99376.25;5051196;28;20428;-60
2022/03/08 02:13:49;;;;;;;16.03;13.83;;;;;;;4.47;90.36;99373.94;5052297;28;20239;-60
2022/03/08 02:16:16;;;;;;;16.20;13.57;;;;;;;4.53;90.56;99377.56;5052678;28;20583;-61
2022/03/08 02:18:45;;;;;;;15.00;12.37;;;;;;;4.55;90.91;99385.28;5052288;28;20763;-60
2022/03/08 02:21:13;;;;;;;16.30;14.10;;;;;;;4.58;90.15;99385.41;5048009;28;20200;-60
2022/03/08 02:23:40;;;;;;;17.63;13.67;;;;;;;4.56;90.69;99385.31;5032812;28;20259;-61
2022/03/08 02:26:07;;;;;;;19.27;13.60;;;;;;;4.48;90.17;99378.22;5032285;28;20198;-61
2022/03/08 02:28:34;;;;;;;17.93;14.20;;;;;;;4.39;89.74;99378.75;5032250;28;20285;-60
2022/03/08 02:31:01;;;;;;;19.60;14.63;;;;;;;4.38;90.02;99377.00;5032363;28;20197;-61
2022/03/08 02:33:28;;;;;;;18.60;14.73;;;;;;;4.43;90.85;99379.72;5032477;28;20286;-60
2022/03/08 02:35:55;;;;;;;21.97;14.73;;;;;;;4.46;90.23;99377.28;5032224;28;20202;-61
2022/03/08 02:38:23;;;;;;;20.33;14.10;;;;;;;4.34;90.55;99370.06;5033096;28;20303;-61
2022/03/08 02:40:50;;;;;;;22.30;19.10;;;;;;;4.48;90.33;99376.53;5031582;28;20513;-60
2022/03/08 02:43:18;;;;;;;20.10;15.30;;;;;;;4.53;89.80;99371.66;5032400;28;20446;-60
2022/03/08 02:45:45;;;;;;;21.67;17.47;;;;;;;4.54;89.93;99371.69;5032246;28;20198;-61
2022/03/08 02:48:12;;;;;;;21.40;18.30;;;;;;;4.55;90.28;99368.34;5030705;28;20441;-60
2022/03/08 02:50:39;;;;;;;20.63;15.97;;;;;;;4.60;90.04;99373.59;5032217;28;20198;-60
2022/03/08 02:53:06;;;;;;;17.97;14.07;;;;;;;4.65;90.11;99367.00;5031371;28;20203;-60
2022/03/08 02:55:36;;;;;;;19.60;15.97;;;;;;;4.62;90.01;99351.63;5031649;28;20200;-62
2022/03/08 02:58:04;;;;;;;21.93;15.87;;;;;;;4.69;89.53;99371.41;5031967;28;20222;-60
2022/03/08 03:00:33;;;;;;;23.00;15.87;;;;;;;4.61;89.26;99367.72;5031981;28;20567;-60
2022/03/08 03:03:00;;;;;;;21.13;14.57;;;;;;;4.62;89.31;99366.88;5031692;28;20203;-60
2022/03/08 03:05:27;;;;;;;21.53;14.97;;;;;;;4.50;89.51;99352.06;5031957;28;20284;-61
2022/03/08 03:07:54;;;;;;;20.13;14.57;;;;;;;4.63;89.02;99368.63;5031783;28;20288;-61
2022/03/08 03:10:23;;;;;;;18.50;14.07;;;;;;;4.55;89.17;99365.81;5031738;28;20208;-61
2022/03/08 03:12:52;;;;;;;19.00;13.93;;;;;;;4.57;89.33;99369.25;5031566;28;20266;-60
2022/03/08 03:15:20;;;;;;;16.40;12.47;;;;;;;4.54;89.52;99368.28;5031827;28;20305;-61
2022/03/08 03:17:47;;;;;;;17.90;13.57;;;;;;;4.40;89.64;99347.41;5031711;28;20318;-60
2022/03/08 03:20:16;;;;;;;16.87;12.90;;;;;;;4.54;89.71;99373.38;5031902;28;20206;-61
2022/03/08 03:22:43;;;;;;;17.80;12.90;;;;;;;4.54;89.79;99376.78;5031660;28;20282;-61
2022/03/08 03:25:12;;;;;;;15.60;12.50;;;;;;;4.53;90.39;99376.75;5031772;28;20210;-60
2022/03/08 03:27:39;;;;;;;17.17;13.50;;;;;;;4.31;89.99;99375.06;5031264;28;20195;-60
2022/03/08 03:30:10;;;;;;;15.37;13.30;;;;;;;4.40;90.18;99384.69;5031273;28;20228;-60
2022/03/08 03:32:38;;;;;;;15.87;12.87;;;;;;;4.37;90.25;99382.06;5031412;28;20279;-60
2022/03/08 03:35:06;;;;;;;16.67;13.77;;;;;;;4.31;90.54;99379.25;5031499;28;20201;-60
2022/03/08 03:37:33;;;;;;;18.33;14.40;;;;;;;4.31;91.37;99380.13;5031146;28;20197;-60
2022/03/08 03:39:59;;;;;;;16.63;13.27;;;;;;;4.18;92.58;99355.88;5031209;28;20229;-60
2022/03/08 03:42:26;;;;;;;17.37;12.93;;;;;;;4.33;91.72;99381.06;5030917;28;20202;-60
2022/03/08 03:44:53;;;;;;;17.57;14.07;;;;;;;4.27;91.83;99378.28;5031467;28;20194;-60
2022/03/08 03:47:22;;;;;;;17.70;13.47;;;;;;;4.27;91.54;99379.94;5030908;28;20289;-60
2022/03/08 03:49:48;;;;;;;17.77;12.97;;;;;;;4.29;91.96;99380.84;5030899;28;20679;-61
2022/03/08 03:52:15;;;;;;;15.03;11.87;;;;;;;4.32;91.49;99384.41;5044699;28;20197;-60
2022/03/08 03:54:42;;;;;;;16.73;12.83;;;;;;;4.41;90.95;99386.44;5050116;28;20195;-61
2022/03/08 03:57:11;;;;;;;16.23;12.90;;;;;;;4.42;91.22;99393.25;5050066;28;20282;-61
2022/03/08 03:59:38;;;;;;;17.67;13.23;;;;;;;4.40;90.98;99393.19;5050721;28;20284;-60
2022/03/08 04:02:05;;;;;;;20.50;13.70;;;;;;;4.40;90.42;99389.75;5050563;28;20204;-60
2022/03/08 04:04:34;;;;;;;18.55;16.20;;;;;;;4.47;91.06;99392.63;5050045;28;20443;-60
2022/03/08 04:07:01;;;;;;;20.97;14.83;;;;;;;4.48;91.10;99381.63;5050518;28;20197;-60
2022/03/08 04:09:28;;;;;;;19.53;14.13;;;;;;;4.47;89.48;99385.00;5050525;28;20199;-60
2022/03/08 04:11:55;;;;;;;24.10;13.53;;;;;;;4.52;90.00;99385.16;5050892;28;20193;-60
2022/03/08 04:14:22;;;;;;;20.47;14.53;;;;;;;4.56;90.74;99389.56;5046928;28;20290;-60
2022/03/08 04:16:49;;;;;;;18.70;14.93;;;;;;;4.55;90.48;99386.16;5048852;28;20202;-61
2022/03/08 04:19:16;;;;;;;18.03;14.03;;;;;;;4.55;90.15;99390.38;5049945;28;20211;-58
2022/03/08 04:21:44;;;;;;;20.60;16.80;;;;;;;4.47;89.98;99384.13;5048404;28;20193;-58
2022/03/08 04:24:11;;;;;;;19.47;14.37;;;;;;;4.52;90.65;99387.72;5049831;28;20202;-58
2022/03/08 04:26:38;;;;;;;20.73;15.03;;;;;;;4.54;90.34;99384.41;5049560;28;20667;-58
2022/03/08 04:29:05;;;;;;;20.17;14.23;;;;;;;4.40;89.78;99365.22;5049493;28;20223;-58
2022/03/08 04:31:33;;;;;;;20.80;15.23;;;;;;;4.50;89.88;99384.25;5049413;28;20434;-58
2022/03/08 04:34:00;;;;;;;19.20;15.27;;;;;;;4.61;90.01;99388.06;5047069;28;20195;-58
2022/03/08 04:36:27;;;;;;;18.37;14.33;;;;;;;4.61;90.62;99395.69;5049635;28;20275;-58
2022/03/08 04:38:55;;;;;;;28.93;23.27;;;;;;;4.52;89.54;99405.50;5049668;28;20259;-58
2022/03/08 04:41:22;;;;;;;25.73;19.30;;;;;;;4.56;89.74;99399.75;5047422;28;20196;-58
2022/03/08 04:43:49;;;;;;;22.37;16.60;;;;;;;4.56;89.81;99395.50;5050047;28;20201;-58
2022/03/08 04:46:16;;;;;;;20.90;16.70;;;;;;;4.55;90.28;99400.53;5050099;28;20193;-58
2022/03/08 04:48:43;;;;;;;24.23;18.57;;;;;;;4.51;89.61;99401.22;5049923;28;20646;-58
2022/03/08 04:51:10;;;;;;;20.50;16.13;;;;;;;4.53;90.24;99404.72;5049962;28;20642;-58
2022/03/08 04:53:38;;;;;;;17.53;13.97;;;;;;;4.55;89.54;99410.72;5049534;28;20192;-58
2022/03/08 04:56:06;;;;;;;16.63;13.50;;;;;;;4.53;89.50;99404.72;5049565;28;20251;-57
2022/03/08 04:58:33;;;;;;;14.80;12.87;;;;;;;4.52;89.24;99414.03;5049337;28;20207;-57
2022/03/08 05:01:00;;;;;;;19.27;16.92;;;;;;;4.51;88.62;99411.41;5048342;28;20524;-58
2022/03/08 05:03:27;;;;;;;19.47;13.97;;;;;;;4.52;89.00;99411.47;5049289;28;20218;-58
2022/03/08 05:05:54;;;;;;;16.10;13.07;;;;;;;4.35;89.40;99416.69;5048997;28;20552;-58
2022/03/08 05:08:21;;;;;;;20.73;15.53;;;;;;;4.38;89.44;99409.19;5048055;28;20205;-58
2022/03/08 05:10:48;;;;;;;18.40;14.17;;;;;;;4.36;90.40;99413.38;5049875;28;20205;-58
2022/03/08 05:13:16;;;;;;;20.63;15.20;;;;;;;4.41;90.10;99411.88;5052666;28;20194;-57
2022/03/08 05:15:44;;;;;;;19.13;15.13;;;;;;;4.40;90.45;99417.75;5036169;28;20318;-57
2022/03/08 05:18:11;;;;;;;20.57;15.47;;;;;;;4.50;89.88;99424.94;5033216;28;20204;-58
2022/03/08 05:20:38;;;;;;;20.43;16.77;;;;;;;4.38;89.64;99420.25;5033954;28;20270;-58
2022/03/08 05:23:05;;;;;;;20.87;16.87;;;;;;;4.43;90.15;99421.28;5033965;28;20241;-57
2022/03/08 05:25:32;;;;;;;26.73;19.57;;;;;;;4.37;90.11;99410.03;5039187;28;20214;-57
2022/03/08 05:27:59;;;;;;;23.07;19.27;;;;;;;4.42;89.93;99424.63;5042684;28;20439;-58
2022/03/08 05:30:27;;;;;;;26.13;19.30;;;;;;;4.45;90.68;99418.81;5053182;28;20239;-58
2022/03/08 05:32:54;;;;;;;26.77;19.87;;;;;;;4.53;91.18;99419.97;5052773;28;20684;-58
2022/03/08 05:35:21;;;;;;;27.40;20.43;;;;;;;4.60;91.19;99421.94;5052753;28;20197;-58
2022/03/08 05:37:48;;;;;;;26.67;20.90;;;;;;;4.55;90.86;99419.22;5053067;28;20291;-57
2022/03/08 05:40:15;;;;;;;28.97;23.00;;;;;;;4.58;91.16;99423.56;5053003;28;20213;-57
2022/03/08 05:42:43;;;;;;;34.23;24.23;;;;;;;4.61;91.19;99423.69;5052948;28;20194;-57
2022/03/08 05:45:12;;;;;;;31.73;25.57;;;;;;;4.66;90.74;99429.81;5052944;28;20663;-58
2022/03/08 05:47:41;;;;;;;33.00;24.27;;;;;;;4.71;90.30;99430.84;5052757;28;20202;-58
2022/03/08 05:50:09;;;;;;;26.87;20.50;;;;;;;4.68;90.05;99430.72;5052694;28;20785;-57
2022/03/08 05:52:36;;;;;;;23.13;18.17;;;;;;;4.70;89.14;99434.19;5052839;28;20197;-58
2022/03/08 05:55:04;;;;;;;23.10;17.40;;;;;;;4.68;89.12;99434.16;5052595;28;20192;-59
2022/03/08 05:57:31;;;;;;;26.77;18.37;;;;;;;4.65;88.68;99435.69;5052836;28;20578;-57
2022/03/08 05:59:58;;;;;;;23.27;18.20;;;;;;;4.66;89.06;99440.00;5050622;28;20310;-60
2022/03/08 06:02:24;;;;;;;20.87;16.77;;;;;;;4.66;88.97;99445.06;5044266;28;20238;-59
2022/03/08 06:04:53;;;;;;;23.13;17.80;;;;;;;4.70;89.29;99445.25;5052063;28;20483;-60
2022/03/08 06:07:21;;;;;;;25.37;17.27;;;;;;;4.75;89.48;99445.44;5052377;28;20192;-60
2022/03/08 06:09:48;;;;;;;24.07;16.60;;;;;;;4.68;89.13;99448.53;5052598;28;20319;-60
2022/03/08 06:12:15;;;;;;;23.87;16.17;;;;;;;4.66;89.65;99445.94;5052449;28;20259;-60
2022/03/08 06:14:42;;;;;;;19.93;15.13;;;;;;;4.66;89.10;99450.16;5052218;28;20194;-60
2022/03/08 06:17:09;;;;;;;19.87;14.97;;;;;;;4.51;89.33;99430.06;5052413;28;20193;-60
2022/03/08 06:19:36;;;;;;;28.37;20.17;;;;;;;4.59;88.89;99454.13;5052096;28;20237;-60
2022/03/08 06:22:06;;;;;;;34.77;22.40;;;;;;;4.58;89.07;99459.19;5052279;28;20192;-61
2022/03/08 06:24:33;;;;;;;22.33;14.93;;;;;;;4.60;88.30;99452.47;5051251;28;20191;-61
2022/03/08 06:27:00;;;;;;;25.43;17.67;;;;;;;4.46;88.38;99456.16;5052086;28;20193;-60
2022/03/08 06:29:27;;;;;;;19.13;15.47;;;;;;;4.49;88.17;99457.13;5051841;28;20227;-60
2022/03/08 06:31:54;;;;;;;17.57;14.30;;;;;;;4.50;89.52;99458.88;5051086;28;20590;-60
2022/03/08 06:34:21;;;;;;;23.27;18.60;;;;;;;4.56;89.64;99459.09;5050963;28;20888;-60
2022/03/08 06:36:47;;;;;;;25.10;19.30;;;;;;;4.60;88.93;99462.66;5051997;28;20236;-61
2022/03/08 06:39:16;;;;;;;30.17;22.37;;;;;;;4.56;88.26;99459.09;5051685;28;20217;-61
2022/03/08 06:41:42;;;;;;;26.70;18.70;;;;;;;4.41;89.33;99452.56;5051845;28;20198;-61
2022/03/08 06:44:10;;;;;;;23.00;17.77;;;;;;;4.41;90.36;99465.28;5051208;28;20700;-61
2022/03/08 06:46:41;;;;;;;25.93;18.30;;;;;;;4.45;90.47;99474.78;5051491;28;20200;-60
2022/03/08 06:49:08;;;;;;;25.47;18.73;;;;;;;4.44;90.76;99466.28;5051340;28;20202;-61
2022/03/08 06:51:35;;;;;;;21.90;16.10;;;;;;;4.47;90.51;99475.69;5051330;28;20193;-61
2022/03/08 06:54:02;;;;;;;25.33;17.38;;;;;;;4.29;90.30;99440.22;5051337;28;20450;-60
2022/03/08 06:56:31;;;;;;;24.00;17.57;;;;;;;4.52;90.39;99474.19;5051639;28;20308;-61
2022/03/08 06:58:58;;;;;;;21.80;16.67;;;;;;;4.52;91.22;99477.63;5051261;28;20317;-57
2022/03/08 07:01:25;;;;;;;25.03;15.80;;;;;;;4.61;91.00;99474.56;5051398;28;21044;-58
2022/03/08 07:03:51;;;;;;;21.57;16.47;;;;;;;4.66;89.17;99480.69;5051693;28;20190;-57
2022/03/08 07:06:18;;;;;;;26.27;18.30;;;;;;;4.65;90.02;99479.81;5051609;28;20246;-57
2022/03/08 07:08:45;;;;;;;21.63;15.67;;;;;;;4.60;89.02;99481.31;5051457;28;20192;-57
2022/03/08 07:11:13;;;;;;;20.10;15.77;;;;;;;4.50;88.33;99473.28;5051105;28;20213;-57
2022/03/08 07:13:41;;;;;;;19.33;15.80;;;;;;;4.55;89.28;99476.88;5051385;28;20202;-56
2022/03/08 07:16:08;;;;;;;20.97;15.87;;;;;;;4.59;89.20;99471.06;5051877;28;20207;-60
2022/03/08 07:18:35;;;;;;;16.93;13.67;;;;;;;4.49;88.63;99476.63;5051229;28;20286;-60
2022/03/08 07:21:03;;;;;;;17.47;14.70;;;;;;;4.46;88.93;99476.50;5051053;28;20220;-60
2022/03/08 07:23:30;;;;;;;22.37;17.13;;;;;;;4.51;89.44;99473.31;5052163;28;20205;-60
2022/03/08 07:25:57;;;;;;;22.47;15.73;;;;;;;4.59;89.04;99481.25;5049256;28;20193;-60
2022/03/08 07:28:24;;;;;;;21.88;16.67;;;;;;;4.63;88.82;99475.50;5047547;28;20469;-60
2022/03/08 07:30:53;;;;;;;20.90;15.57;;;;;;;4.66;88.87;99478.16;5030765;28;20202;-60
2022/03/08 07:33:19;;;;;;;20.27;15.93;;;;;;;4.68;88.71;99479.06;5035165;28;20195;-61
2022/03/08 07:35:46;;;;;;;23.47;16.17;;;;;;;4.63;88.76;99476.38;5036016;28;20338;-61
2022/03/08 07:38:13;;;;;;;27.47;19.43;;;;;;;4.60;89.78;99483.88;5037564;28;20205;-61
2022/03/08 07:40:40;;;;;;;21.07;15.37;;;;;;;4.51;89.65;99477.53;5038058;28;20209;-61
2022/03/08 07:43:07;;;;;;;20.27;15.27;;;;;;;4.44;87.87;99478.13;5035334;28;20190;-60
2022/03/08 07:45:35;;;;;;;24.90;16.73;;;;;;;4.45;89.01;99477.31;5032903;28;20202;-60
2022/03/08 07:48:05;;;;;;;28.50;20.27;;;;;;;4.50;88.24;99478.38;5030673;28;20203;-60
2022/03/08 07:50:32;;;;;;;24.77;19.67;;;;;;;4.58;88.50;99477.00;5030605;28;20193;-61
2022/03/08 07:53:00;;;;;;;27.70;18.47;;;;;;;4.60;89.62;99480.47;5030912;28;20202;-60
2022/03/08 07:55:29;;;;;;;23.20;15.77;;;;;;;4.62;88.44;99479.72;5030664;28;20208;-60
2022/03/08 07:57:56;;;;;;;22.60;18.85;;;;;;;4.66;88.38;99475.63;5029470;28;20455;-60
2022/03/08 08:00:23;;;;;;;21.90;15.47;;;;;;;4.73;88.69;99468.28;5030495;28;20217;-60
2022/03/08 08:02:50;;;;;;;21.40;14.93;;;;;;;4.81;88.37;99468.56;5030131;28;20193;-61
2022/03/08 08:05:19;;;;;;;19.87;15.13;;;;;;;4.86;88.00;99461.13;5030133;28;20201;-61
2022/03/08 08:07:46;;;;;;;20.27;13.70;;;;;;;4.84;87.67;99448.31;5030118;28;20193;-61
2022/03/08 08:10:13;;;;;;;19.33;15.00;;;;;;;5.05;88.25;99463.53;5030054;28;20287;-60
2022/03/08 08:12:40;;;;;;;18.67;14.77;;;;;;;5.10;87.66;99462.03;5025452;28;20193;-60
2022/03/08 08:15:08;;;;;;;22.40;14.60;;;;;;;4.66;86.53;99463.75;5034805;28;20200;-61
2022/03/08 08:17:35;;;;;;;20.20;14.87;;;;;;;4.63;87.03;99462.78;5029533;28;20200;-61
2022/03/08 08:20:02;;;;;;;22.77;16.70;;;;;;;4.54;87.63;99455.63;5031509;28;20216;-60
2022/03/08 08:22:31;;;;;;;25.50;19.60;;;;;;;4.52;87.82;99454.72;5034614;28;20526;-58
2022/03/08 08:24:57;;;;;;;24.17;17.50;;;;;;;4.67;88.51;99451.88;5036829;28;20261;-58
2022/03/08 08:27:24;;;;;;;26.03;16.70;;;;;;;4.89;87.84;99451.06;5030032;28;20300;-58
2022/03/08 08:29:51;;;;;;;24.80;18.47;;;;;;;5.07;87.39;99449.19;5040850;28;20216;-58
2022/03/08 08:32:18;;;;;;;22.37;15.87;;;;;;;5.30;87.19;99446.66;5049239;28;20210;-58
2022/03/08 08:34:45;;;;;;;23.70;16.77;;;;;;;5.44;86.82;99442.03;5049058;28;20273;-58
2022/03/08 08:37:12;;;;;;;25.23;17.07;;;;;;;5.77;86.97;99447.44;5049264;28;20198;-58
2022/03/08 08:39:41;;;;;;;23.13;14.63;;;;;;;6.01;86.41;99444.91;5047786;28;20217;-58
2022/03/08 08:42:08;;;;;;;20.00;13.90;;;;;;;6.09;84.41;99449.44;5049075;28;20579;-57
2022/03/08 08:44:35;;;;;;;20.70;13.23;;;;;;;5.98;84.54;99426.94;5048708;28;20283;-58
2022/03/08 08:47:03;;;;;;;18.10;12.30;;;;;;;6.05;84.15;99436.53;5051565;28;20208;-58
2022/03/08 08:49:30;;;;;;;14.37;11.80;;;;;;;6.16;84.04;99446.25;5050607;28;20197;-57
2022/03/08 08:51:57;;;;;;;17.90;14.95;;;;;;;6.16;83.57;99453.91;5052475;28;20534;-57
2022/03/08 08:54:24;;;;;;;18.67;13.60;;;;;;;6.22;83.21;99450.69;5051144;28;20285;-58
2022/03/08 08:56:52;;;;;;;16.23;12.47;;;;;;;6.25;83.78;99454.22;5051040;28;20279;-58
2022/03/08 08:59:19;;;;;;;15.67;11.13;;;;;;;6.22;82.83;99454.13;5053083;28;20201;-58
2022/03/08 09:01:46;;;;;;;19.97;12.30;;;;;;;6.19;82.49;99459.13;5053002;28;20245;-58
2022/03/08 09:04:13;;;;;;;18.07;12.53;;;;;;;6.07;80.81;99456.16;5053137;28;20190;-57
2022/03/08 09:06:41;;;;;;;17.07;12.63;;;;;;;6.03;81.84;99451.78;5052811;28;20286;-58
2022/03/08 09:09:09;;;;;;;17.97;12.97;;;;;;;5.99;81.84;99449.94;5050295;28;20193;-58
2022/03/08 09:11:36;;;;;;;19.63;12.87;;;;;;;6.10;83.48;99448.59;5052789;28;20185;-58
2022/03/08 09:14:05;;;;;;;17.40;13.53;;;;;;;6.13;83.67;99448.72;5052699;28;20724;-58
2022/03/08 09:16:32;;;;;;;19.50;15.83;;;;;;;6.17;83.24;99444.59;5052742;28;20194;-58
2022/03/08 09:18:59;;;;;;;20.67;15.60;;;;;;;6.14;82.58;99413.88;5052731;28;20286;-59
2022/03/08 09:21:26;;;;;;;24.27;19.10;;;;;;;6.40;82.23;99443.66;5052620;28;20322;-57
2022/03/08 09:23:53;;;;;;;18.73;14.77;;;;;;;6.38;81.81;99448.69;5051158;28;20202;-58
2022/03/08 09:26:20;;;;;;;19.77;13.27;;;;;;;6.29;80.42;99452.66;5052213;28;20221;-57
2022/03/08 09:28:47;;;;;;;18.97;13.50;;;;;;;6.25;80.68;99456.78;5052114;28;20332;-57
2022/03/08 09:31:15;;;;;;;19.83;13.27;;;;;;;6.21;81.50;99451.50;5051602;28;20570;-58
2022/03/08 09:33:42;;;;;;;18.87;12.60;;;;;;;6.10;81.66;99456.25;5052650;28;20193;-57
2022/03/08 09:36:10;;;;;;;18.37;13.67;;;;;;;6.07;81.75;99456.16;5052600;28;20205;-58
2022/03/08 09:38:37;;;;;;;18.60;14.03;;;;;;;6.06;81.82;99459.53;5052902;28;20598;-58
2022/03/08 09:41:04;;;;;;;20.17;15.67;;;;;;;6.08;83.25;99449.38;5052990;28;20289;-58
2022/03/08 09:43:31;;;;;;;24.23;15.43;;;;;;;6.03;82.85;99459.44;5051945;28;20192;-59
2022/03/08 09:45:58;;;;;;;22.27;16.77;;;;;;;5.97;83.14;99458.34;5052083;28;20281;-58
2022/03/08 09:48:27;;;;;;;20.10;15.53;;;;;;;5.96;83.41;99460.03;5066878;28;20205;-59
2022/03/08 09:50:54;;;;;;;22.17;14.80;;;;;;;5.86;82.78;99448.66;5052811;28;20707;-58
2022/03/08 09:53:21;;;;;;;22.80;15.80;;;;;;;5.87;82.25;99459.75;5050286;28;20185;-57
2022/03/08 09:55:48;;;;;;;23.57;16.37;;;;;;;5.84;83.37;99473.22;5051442;28;20642;-58
2022/03/08 09:58:19;;;;;;;29.60;17.43;;;;;;;5.87;83.41;99470.81;5052010;28;20180;-58
2022/03/08 10:00:46;;;;;;;29.40;18.97;;;;;;;5.90;83.75;99463.28;5051603;28;20224;-58
2022/03/08 10:03:13;;;;;;;27.77;17.43;;;;;;;5.95;83.79;99468.50;5049105;28;20272;-58
2022/03/08 10:05:43;;;;;;;26.65;16.75;;;;;;;5.93;83.80;99472.69;5051455;28;20964;-58
2022/03/08 10:08:13;;;;;;;23.57;16.33;;;;;;;5.91;83.62;99472.63;5051918;28;20197;-58
2022/03/08 10:10:52;;;;;;;21.73;16.10;;;;;;;5.93;83.55;99462.50;5050583;28;20271;-60
2022/03/08 10:13:21;;;;;;;20.90;15.00;;;;;;;5.91;83.12;99475.19;5048670;28;20282;-58
2022/03/08 10:16:08;;;;;;;22.87;15.53;;;;;;;5.90;83.14;99476.03;5048431;28;20258;-57
2022/03/08 10:18:36;;;;;;;20.53;13.93;;;;;;;5.89;83.13;99470.84;5051248;28;20189;-58
2022/03/08 10:21:05;;;;;;;22.00;14.90;;;;;;;5.83;82.86;99478.25;5049585;28;20294;-59
2022/03/08 10:23:41;;;;;;;28.37;19.17;;;;;;;5.85;83.17;99474.13;5050649;28;20632;-57
2022/03/08 10:26:12;;;;;;;28.97;19.47;;;;;;;5.91;84.23;99474.31;5049250;28;20199;-58
2022/03/08 10:28:50;;;;;;;23.10;15.77;;;;;;;5.93;82.71;99478.66;5049590;28;20206;-60
2022/03/08 10:31:17;;;;;;;19.50;13.90;;;;;;;5.94;81.98;99482.06;5049423;28;20203;-60
2022/03/08 10:33:46;;;;;;;20.47;14.57;;;;;;;5.96;82.30;99480.44;5051844;28;20626;-60
2022/03/08 10:36:17;;;;;;;37.73;27.20;;;;;;;5.66;81.43;99469.19;5051769;28;20197;-61
2022/03/08 10:39:09;;;;;;;24.47;18.13;;;;;;;5.72;81.57;99472.78;5051714;28;20199;-61
2022/03/08 10:41:40;;;;;;;18.37;13.53;;;;;;;5.65;81.52;99480.16;5049772;28;20216;-60
2022/03/08 10:44:07;;;;;;;17.00;12.83;;;;;;;5.72;82.41;99477.88;5051744;28;20200;-60
2022/03/08 10:46:34;;;;;;;20.57;15.77;;;;;;;5.96;82.48;99487.22;5051636;28;20381;-61
2022/03/08 10:49:11;;;;;;;19.50;13.83;;;;;;;6.16;81.34;99483.66;5051119;28;20216;-60
2022/03/08 10:51:40;;;;;;;21.93;15.07;;;;;;;6.10;80.40;99463.91;5051459;28;20666;-60
2022/03/08 10:54:14;;;;;;;21.93;14.70;;;;;;;6.28;79.84;99484.94;5051584;28;20188;-61
2022/03/08 10:56:46;;;;;;;18.33;13.47;;;;;;;6.43;80.32;99479.44;5050961;28;20204;-61
2022/03/08 10:59:15;;;;;;;23.10;16.50;;;;;;;6.56;80.27;99485.81;5049780;28;20223;-60
2022/03/08 11:01:42;;;;;;;23.07;15.40;;;;;;;6.26;79.22;99486.56;5050573;28;20219;-61
2022/03/08 11:04:18;;;;;;;24.80;17.90;;;;;;;6.35;80.46;99476.66;5049266;28;20204;-61
2022/03/08 11:06:50;;;;;;;27.03;17.33;;;;;;;6.57;81.31;99475.66;5051172;28;20206;-61
2022/03/08 11:09:18;;;;;;;23.40;16.67;;;;;;;6.25;81.52;99413.41;5050584;28;20210;-61
2022/03/08 11:11:45;;;;;;;32.03;23.35;;;;;;;6.84;80.75;99480.78;5051040;28;20983;-62
2022/03/08 11:14:12;;;;;;;31.30;21.57;;;;;;;7.06;80.03;99485.69;5051031;28;20203;-62
2022/03/08 11:16:40;;;;;;;23.43;16.87;;;;;;;7.23;79.30;99479.38;5050813;28;20207;-62
2022/03/08 11:19:07;;;;;;;17.90;13.97;;;;;;;7.23;77.47;99479.38;5050726;28;20287;-60
2022/03/08 11:21:36;;;;;;;17.53;13.60;;;;;;;7.30;76.52;99473.63;5050976;28;20223;-61
2022/03/08 11:24:05;;;;;;;16.97;13.80;;;;;;;7.37;76.25;99441.44;5050700;28;20178;-61
2022/03/08 11:26:33;;;;;;;13.70;11.80;;;;;;;7.58;74.39;99445.44;5050829;28;20196;-62
2022/03/08 11:29:01;;;;;;;14.83;12.70;;;;;;;7.82;74.68;99457.16;5050889;28;20604;-61